createdAt,value
2019-02-02T00:01:17.052Z,40.50
2019-02-02T00:03:44.673Z,41.37
2019-02-02T00:06:12.115Z,35.87
2019-02-02T00:08:40.776Z,38.70
2019-02-02T00:11:08.226Z,43.97
2019-02-02T00:13:35.714Z,39.17
2019-02-02T00:16:04.288Z,38.77
2019-02-02T00:18:31.852Z,40.27
2019-02-02T00:20:59.366Z,36.87
2019-02-02T00:23:26.925Z,38.17
2019-02-02T00:25:54.753Z,37.53
2019-02-02T00:28:22.242Z,37.97
2019-02-02T00:30:49.884Z,37.27
2019-02-02T00:33:17.445Z,41.23
2019-02-02T00:35:44.914Z,39.30
2019-02-02T00:38:12.462Z,41.73
2019-02-02T00:40:39.965Z,37.67
2019-02-02T00:43:07.605Z,38.00
2019-02-02T00:45:35.079Z,43.87
2019-02-02T00:48:02.725Z,40.77
2019-02-02T00:50:30.285Z,40.93
2019-02-02T00:52:57.765Z,38.50
2019-02-02T00:55:25.238Z,45.30
2019-02-02T00:57:53.851Z,41.23
2019-02-02T01:00:21.807Z,40.97
2019-02-02T01:02:49.257Z,39.40
2019-02-02T01:05:18.185Z,39.20
2019-02-02T01:07:45.829Z,41.30
2019-02-02T01:10:16.758Z,40.00
2019-02-02T01:12:44.311Z,38.77
2019-02-02T01:15:12.351Z,39.43
2019-02-02T01:17:41.252Z,40.93
2019-02-02T01:20:08.989Z,41.93
2019-02-02T01:22:37.941Z,35.50
2019-02-02T01:25:05.811Z,34.93
2019-02-02T01:27:33.245Z,40.70
2019-02-02T01:30:00.780Z,35.43
2019-02-02T01:32:28.252Z,40.03
2019-02-02T01:34:55.843Z,40.87
2019-02-02T01:37:23.398Z,40.90
2019-02-02T01:39:50.865Z,35.40
2019-02-02T01:42:18.357Z,42.23
2019-02-02T01:44:45.811Z,43.83
2019-02-02T01:47:13.264Z,40.87
2019-02-02T01:49:40.741Z,39.53
2019-02-02T01:52:08.213Z,39.73
2019-02-02T01:54:38.306Z,39.80
2019-02-02T01:57:05.174Z,41.43
2019-02-02T01:59:32.752Z,38.73
2019-02-02T02:02:00.317Z,40.87
2019-02-02T02:04:29.557Z,40.17
2019-02-02T02:06:57.043Z,36.20
2019-02-02T02:09:26.280Z,39.67
2019-02-02T02:11:53.738Z,38.43
2019-02-02T02:14:21.174Z,39.33
2019-02-02T02:16:48.655Z,38.43
2019-02-02T02:19:16.966Z,38.53
2019-02-02T02:21:44.443Z,42.73
2019-02-02T02:24:11.918Z,41.97
2019-02-02T02:26:39.456Z,38.63
2019-02-02T02:29:06.844Z,44.93
2019-02-02T02:31:34.376Z,38.37
2019-02-02T02:34:01.939Z,35.57
2019-02-02T02:36:29.503Z,44.97
2019-02-02T02:38:58.260Z,38.63
2019-02-02T02:41:25.806Z,37.27
2019-02-02T02:43:54.356Z,36.77
2019-02-02T02:46:21.816Z,34.17
2019-02-02T02:48:49.256Z,36.57
2019-02-02T02:51:16.726Z,43.80
2019-02-02T02:53:44.388Z,39.00
2019-02-02T02:56:11.947Z,39.17
2019-02-02T02:58:41.519Z,41.43
2019-02-02T03:01:08.774Z,44.53
2019-02-02T03:03:36.295Z,43.37
2019-02-02T03:06:04.080Z,43.43
2019-02-02T03:08:31.641Z,40.67
2019-02-02T03:10:59.206Z,44.30
2019-02-02T03:13:26.645Z,42.00
2019-02-02T03:15:55.339Z,42.00
2019-02-02T03:18:23.176Z,41.53
2019-02-02T03:20:51.829Z,38.77
2019-02-02T03:23:19.356Z,40.67
2019-02-02T03:25:46.828Z,41.93
2019-02-02T03:28:14.492Z,40.37
2019-02-02T03:30:42.041Z,37.90
2019-02-02T03:33:09.581Z,42.00
2019-02-02T03:35:37.185Z,44.13
2019-02-02T03:38:04.727Z,41.83
2019-02-02T03:40:32.276Z,40.83
2019-02-02T03:42:59.740Z,40.20
2019-02-02T03:45:27.193Z,45.33
2019-02-02T03:47:54.658Z,43.17
2019-02-02T03:50:22.122Z,42.80
2019-02-02T03:52:49.664Z,50.13
2019-02-02T03:55:17.125Z,40.63
2019-02-02T03:57:45.697Z,53.57
2019-02-02T04:00:15.986Z,44.43
2019-02-02T04:02:43.571Z,42.17
2019-02-02T04:05:13.863Z,43.10
2019-02-02T04:07:41.447Z,40.23
2019-02-02T04:10:09.355Z,42.73
2019-02-02T04:12:36.869Z,39.17
2019-02-02T04:15:05.482Z,47.20
2019-02-02T04:17:32.935Z,44.30
2019-02-02T04:20:00.490Z,44.03
2019-02-02T04:22:27.955Z,41.17
2019-02-02T04:24:55.426Z,45.17
2019-02-02T04:27:22.912Z,42.07
2019-02-02T04:29:51.594Z,44.97
2019-02-02T04:32:19.187Z,44.90
2019-02-02T04:34:46.731Z,41.47
2019-02-02T04:37:14.175Z,43.63
2019-02-02T04:39:41.843Z,46.30
2019-02-02T04:42:09.321Z,41.70
2019-02-02T04:44:36.775Z,44.20
2019-02-02T04:47:04.234Z,42.10
2019-02-02T04:49:31.699Z,47.53
2019-02-02T04:51:59.344Z,43.33
2019-02-02T04:54:26.940Z,39.73
2019-02-02T04:56:54.478Z,48.50
2019-02-02T04:59:28.979Z,43.80
2019-02-02T05:02:10.871Z,47.13
2019-02-02T05:04:38.317Z,46.40
2019-02-02T05:07:05.772Z,49.60
2019-02-02T05:09:33.223Z,45.93
2019-02-02T05:12:00.713Z,51.33
2019-02-02T05:14:28.289Z,46.23
2019-02-02T05:16:55.863Z,47.17
2019-02-02T05:19:23.317Z,46.03
2019-02-02T05:21:50.827Z,46.27
2019-02-02T05:24:18.314Z,44.83
2019-02-02T05:26:45.745Z,44.90
2019-02-02T05:29:13.286Z,47.50
2019-02-02T05:31:40.761Z,45.57
2019-02-02T05:34:08.236Z,46.43
2019-02-02T05:36:35.700Z,44.10
2019-02-02T05:39:06.095Z,47.57
2019-02-02T05:41:33.646Z,43.93
2019-02-02T05:44:01.208Z,48.50
2019-02-02T05:46:28.744Z,41.87
2019-02-02T05:48:56.333Z,42.60
2019-02-02T05:51:23.889Z,46.70
2019-02-02T05:53:51.724Z,47.93
2019-02-02T05:56:19.175Z,44.53
2019-02-02T05:58:46.773Z,47.03
2019-02-02T06:01:18.036Z,43.07
2019-02-02T06:03:45.516Z,51.40
2019-02-02T06:06:14.868Z,44.03
2019-02-02T06:08:42.356Z,43.37
2019-02-02T06:11:09.892Z,45.00
2019-02-02T06:13:37.452Z,48.90
2019-02-02T06:16:05.012Z,47.23
2019-02-02T06:18:32.458Z,50.20
2019-02-02T06:20:59.997Z,41.90
2019-02-02T06:23:27.667Z,43.07
2019-02-02T06:25:56.475Z,42.37
2019-02-02T06:28:24.053Z,43.57
2019-02-02T06:30:51.620Z,45.87
2019-02-02T06:33:19.088Z,47.80
2019-02-02T06:35:46.632Z,54.17
2019-02-02T06:38:14.228Z,49.40
2019-02-02T06:40:41.710Z,50.50
2019-02-02T06:43:09.164Z,45.47
2019-02-02T06:45:36.662Z,53.47
2019-02-02T06:48:04.612Z,52.40
2019-02-02T06:50:32.416Z,50.70
2019-02-02T06:53:00.428Z,49.93
2019-02-02T06:55:29.116Z,53.40
2019-02-02T06:57:56.540Z,53.77
2019-02-02T07:00:26.545Z,51.33
2019-02-02T07:02:54.175Z,54.13
2019-02-02T07:05:21.945Z,54.73
2019-02-02T07:07:49.408Z,52.83
2019-02-02T07:10:19.103Z,51.20
2019-02-02T07:12:46.640Z,53.90
2019-02-02T07:15:14.752Z,48.97
2019-02-02T07:17:42.321Z,52.00
2019-02-02T07:20:11.191Z,58.77
2019-02-02T07:22:38.766Z,50.53
2019-02-02T07:25:06.655Z,56.00
2019-02-02T07:27:34.124Z,57.30
2019-02-02T07:30:05.227Z,53.33
2019-02-02T07:32:33.053Z,50.80
2019-02-02T07:35:00.595Z,54.30
2019-02-02T07:37:28.040Z,56.17
2019-02-02T07:39:55.625Z,53.00
2019-02-02T07:42:23.285Z,51.73
2019-02-02T07:44:50.778Z,52.33
2019-02-02T07:47:18.209Z,51.90
2019-02-02T07:49:45.693Z,54.33
2019-02-02T07:52:13.225Z,58.67
2019-02-02T07:54:40.816Z,59.30
2019-02-02T07:57:08.308Z,55.10
2019-02-02T07:59:35.862Z,56.20
2019-02-02T08:02:03.623Z,61.20
2019-02-02T08:04:31.071Z,59.07
2019-02-02T08:06:58.604Z,56.10
2019-02-02T08:09:26.065Z,62.27
2019-02-02T08:11:53.644Z,56.90
2019-02-02T08:14:21.077Z,63.60
2019-02-02T08:16:48.551Z,60.23
2019-02-02T08:19:16.023Z,63.53
2019-02-02T08:21:43.585Z,63.73
2019-02-02T08:24:11.140Z,61.80
2019-02-02T08:26:38.635Z,64.80
2019-02-02T08:29:06.085Z,61.60
2019-02-02T08:31:33.641Z,64.20
2019-02-02T08:34:01.228Z,56.50
2019-02-02T08:36:28.792Z,64.50
2019-02-02T08:38:56.357Z,63.17
2019-02-02T08:41:24.018Z,67.87
2019-02-02T08:43:51.693Z,66.63
2019-02-02T08:46:19.144Z,62.60
2019-02-02T08:48:46.777Z,62.30
2019-02-02T08:51:14.427Z,60.10
2019-02-02T08:53:41.940Z,57.80
2019-02-02T08:56:09.444Z,63.07
2019-02-02T08:58:37.016Z,64.73
2019-02-02T09:01:05.686Z,67.80
2019-02-02T09:03:33.188Z,60.60
2019-02-02T09:06:00.712Z,62.30
2019-02-02T09:08:28.295Z,69.23
2019-02-02T09:10:55.924Z,59.23
2019-02-02T09:13:23.590Z,62.40
2019-02-02T09:15:51.147Z,62.53
2019-02-02T09:18:18.762Z,63.50
2019-02-02T09:20:46.353Z,61.67
2019-02-02T09:23:15.792Z,57.03
2019-02-02T09:25:43.318Z,69.67
2019-02-02T09:28:10.988Z,70.43
2019-02-02T09:30:38.500Z,63.77
2019-02-02T09:33:06.764Z,60.40
2019-02-02T09:35:34.340Z,60.83
2019-02-02T09:38:01.890Z,63.90
2019-02-02T09:40:29.464Z,67.73
2019-02-02T09:42:57.068Z,63.57
2019-02-02T09:45:24.560Z,63.07
2019-02-02T09:47:52.479Z,61.47
2019-02-02T09:50:21.987Z,67.77
2019-02-02T09:52:49.642Z,73.77
2019-02-02T09:55:18.516Z,66.10
2019-02-02T09:57:46.165Z,73.93
2019-02-02T10:00:16.741Z,72.23
2019-02-02T10:02:47.204Z,61.97
2019-02-02T10:05:18.957Z,68.73
2019-02-02T10:07:45.582Z,68.30
2019-02-02T10:10:15.809Z,69.13
2019-02-02T10:12:43.404Z,65.20
2019-02-02T10:15:11.222Z,69.77
2019-02-02T10:17:40.598Z,79.73
2019-02-02T10:20:10.374Z,76.83
2019-02-02T10:22:37.931Z,69.20
2019-02-02T10:25:06.382Z,74.37
2019-02-02T10:27:33.967Z,70.33
2019-02-02T10:30:03.774Z,69.77
2019-02-02T10:32:31.428Z,71.93
2019-02-02T10:34:59.074Z,70.63
2019-02-02T10:37:26.657Z,71.00
2019-02-02T10:39:54.132Z,69.53
2019-02-02T10:42:21.660Z,66.33
2019-02-02T10:44:49.312Z,66.63
2019-02-02T10:47:23.885Z,66.23
2019-02-02T10:50:01.108Z,70.73
2019-02-02T10:52:34.382Z,72.43
2019-02-02T10:55:04.767Z,70.90
2019-02-02T10:57:41.337Z,71.03
2019-02-02T11:00:24.468Z,75.20
2019-02-02T11:03:03.306Z,74.03
2019-02-02T11:05:44.100Z,75.73
2019-02-02T11:08:11.666Z,68.33
2019-02-02T11:10:39.405Z,67.83
2019-02-02T11:13:07.477Z,73.87
2019-02-02T11:15:35.186Z,67.43
2019-02-02T11:18:03.340Z,81.03
2019-02-02T11:20:32.660Z,76.00
2019-02-02T11:23:00.486Z,74.83
2019-02-02T11:25:28.118Z,75.47
2019-02-02T11:27:55.792Z,79.77
2019-02-02T11:30:24.147Z,71.23
2019-02-02T11:32:51.706Z,73.90
2019-02-02T11:35:19.176Z,72.27
2019-02-02T11:37:46.703Z,71.27
2019-02-02T11:40:16.640Z,74.10
2019-02-02T11:42:44.187Z,70.30
2019-02-02T11:45:12.009Z,72.47
2019-02-02T11:47:39.552Z,65.07
2019-02-02T11:50:08.680Z,73.00
2019-02-02T11:52:36.451Z,68.90
2019-02-02T11:55:04.732Z,67.97
2019-02-02T11:57:32.332Z,73.30
2019-02-02T12:00:00.034Z,71.30
2019-02-02T12:02:27.660Z,70.77
2019-02-02T12:04:55.174Z,76.23
2019-02-02T12:07:22.749Z,72.23
2019-02-02T12:09:50.349Z,69.57
2019-02-02T12:12:18.070Z,61.07
2019-02-02T12:14:45.705Z,66.73
2019-02-02T12:17:13.485Z,70.07
2019-02-02T12:19:41.065Z,69.83
2019-02-02T12:22:08.617Z,66.40
2019-02-02T12:24:36.354Z,69.03
2019-02-02T12:27:03.873Z,74.00
2019-02-02T12:29:31.494Z,72.57
2019-02-02T12:31:59.206Z,66.90
2019-02-02T12:34:26.834Z,66.87
2019-02-02T12:36:54.396Z,69.17
2019-02-02T12:39:23.748Z,65.73
2019-02-02T12:41:51.416Z,70.10
2019-02-02T12:44:18.892Z,63.73
2019-02-02T12:46:46.360Z,66.37
2019-02-02T12:49:13.944Z,62.30
2019-02-02T12:51:41.505Z,74.83
2019-02-02T12:54:09.091Z,66.37
2019-02-02T12:56:36.684Z,64.53
2019-02-02T12:59:04.551Z,63.13
2019-02-02T13:01:32.400Z,69.07
2019-02-02T13:04:05.134Z,69.23
2019-02-02T13:06:31.219Z,75.73
2019-02-02T13:08:58.857Z,69.53
2019-02-02T13:11:26.418Z,71.87
2019-02-02T13:13:54.145Z,65.73
2019-02-02T13:16:21.888Z,63.93
2019-02-02T13:18:49.594Z,66.97
2019-02-02T13:21:19.523Z,72.67
2019-02-02T13:23:47.354Z,67.43
2019-02-02T13:26:15.019Z,69.73
2019-02-02T13:28:42.696Z,77.30
2019-02-02T13:31:10.270Z,71.87
2019-02-02T13:33:37.802Z,69.93
2019-02-02T13:36:05.945Z,71.43
2019-02-02T13:38:33.530Z,73.73
2019-02-02T13:41:01.183Z,70.17
2019-02-02T13:43:28.794Z,74.27
2019-02-02T13:45:56.578Z,66.53
2019-02-02T13:48:24.442Z,74.27
2019-02-02T13:50:52.150Z,67.57
2019-02-02T13:53:19.718Z,74.43
2019-02-02T13:55:47.318Z,68.33
2019-02-02T13:58:14.977Z,70.07
2019-02-02T14:00:42.609Z,68.93
2019-02-02T14:03:10.162Z,69.67
2019-02-02T14:05:38.526Z,68.23
2019-02-02T14:08:06.099Z,68.10
2019-02-02T14:10:34.278Z,69.77
2019-02-02T14:13:01.904Z,76.53
2019-02-02T14:15:29.451Z,67.67
2019-02-02T14:17:57.162Z,69.80
2019-02-02T14:20:24.677Z,70.83
2019-02-02T14:22:52.223Z,77.70
2019-02-02T14:25:19.766Z,71.30
2019-02-02T14:27:47.383Z,73.80
2019-02-02T14:30:17.126Z,68.47
2019-02-02T14:32:44.723Z,71.47
2019-02-02T14:35:13.239Z,75.47
2019-02-02T14:37:40.854Z,78.00
2019-02-02T14:40:09.794Z,82.90
2019-02-02T14:42:37.408Z,75.50
2019-02-02T14:45:06.704Z,78.73
2019-02-02T14:47:34.395Z,77.80
2019-02-02T14:50:06.709Z,74.20
2019-02-02T14:52:34.444Z,84.53
2019-02-02T14:55:02.033Z,85.93
2019-02-02T14:57:29.681Z,75.93
2019-02-02T14:59:57.352Z,72.63
2019-02-02T15:02:24.929Z,70.73
2019-02-02T15:04:52.506Z,88.90
2019-02-02T15:07:20.142Z,84.90
2019-02-02T15:09:49.529Z,83.33
2019-02-02T15:12:17.007Z,77.90
2019-02-02T15:14:44.489Z,81.90
2019-02-02T15:17:11.944Z,78.57
2019-02-02T15:19:41.740Z,81.03
2019-02-02T15:22:28.753Z,79.00
2019-02-02T15:24:57.351Z,85.33
2019-02-02T15:27:26.739Z,85.97
2019-02-02T15:29:54.750Z,81.13
2019-02-02T15:32:22.265Z,85.90
2019-02-02T15:34:49.825Z,84.90
2019-02-02T15:37:17.393Z,89.50
2019-02-02T15:39:46.722Z,92.63
2019-02-02T15:42:26.984Z,88.37
2019-02-02T15:44:54.856Z,85.23
2019-02-02T15:47:22.410Z,87.77
2019-02-02T15:49:50.003Z,86.30
2019-02-02T15:52:17.570Z,80.33
2019-02-02T15:54:45.136Z,91.43
2019-02-02T15:57:12.891Z,94.60
2019-02-02T15:59:59.911Z,92.33
2019-02-02T16:02:27.476Z,90.87
2019-02-02T16:04:55.192Z,90.57
2019-02-02T16:07:22.925Z,98.80
2019-02-02T16:09:50.978Z,93.17
2019-02-02T16:12:19.730Z,101.20
2019-02-02T16:14:49.123Z,101.50
2019-02-02T16:17:16.579Z,102.87
2019-02-02T16:19:44.156Z,104.33
2019-02-02T16:22:11.826Z,97.17
2019-02-02T16:24:39.408Z,105.50
2019-02-02T16:27:07.105Z,102.50
2019-02-02T16:29:34.835Z,107.27
2019-02-02T16:32:02.531Z,95.17
2019-02-02T16:34:30.179Z,100.70
2019-02-02T16:36:57.698Z,103.23
2019-02-02T16:39:25.261Z,98.57
2019-02-02T16:41:52.779Z,101.27
2019-02-02T16:44:20.490Z,97.23
2019-02-02T16:46:48.010Z,107.80
2019-02-02T16:49:17.825Z,95.33
2019-02-02T16:51:45.589Z,107.07
2019-02-02T16:54:13.199Z,102.20
2019-02-02T16:56:40.908Z,98.27
2019-02-02T16:59:08.551Z,101.23
2019-02-02T17:01:48.571Z,112.00
2019-02-02T17:04:16.649Z,112.67
2019-02-02T17:06:44.391Z,109.00
2019-02-02T17:09:14.000Z,98.87
2019-02-02T17:11:41.376Z,108.50
2019-02-02T17:14:08.803Z,109.73
2019-02-02T17:16:36.255Z,107.87
2019-02-02T17:19:04.095Z,108.97
2019-02-02T17:21:31.552Z,105.57
2019-02-02T17:23:59.017Z,112.93
2019-02-02T17:26:26.682Z,114.87
2019-02-02T17:28:54.179Z,94.67
2019-02-02T17:31:21.653Z,103.20
2019-02-02T17:33:49.177Z,105.80
2019-02-02T17:36:16.619Z,93.83
2019-02-02T17:38:44.109Z,91.17
2019-02-02T17:41:11.672Z,112.87
2019-02-02T17:43:39.158Z,103.07
2019-02-02T17:46:06.704Z,110.47
2019-02-02T17:48:34.231Z,103.20
2019-02-02T17:51:01.735Z,106.93
2019-02-02T17:53:29.200Z,114.37
2019-02-02T17:55:56.789Z,102.60
2019-02-02T17:58:24.242Z,98.33
2019-02-02T18:00:56.407Z,96.20
2019-02-02T18:03:23.961Z,102.53
2019-02-02T18:05:51.464Z,105.67
2019-02-02T18:08:20.835Z,107.73
2019-02-02T18:10:49.270Z,99.87
2019-02-02T18:13:16.754Z,91.93
2019-02-02T18:15:44.348Z,94.77
2019-02-02T18:18:12.028Z,99.87
2019-02-02T18:20:39.613Z,93.13
2019-02-02T18:23:08.391Z,90.07
2019-02-02T18:25:35.985Z,89.17
2019-02-02T18:28:03.939Z,93.23
2019-02-02T18:30:31.433Z,104.30
2019-02-02T18:32:58.913Z,90.47
2019-02-02T18:35:26.513Z,99.07
2019-02-02T18:38:07.301Z,99.57
2019-02-02T18:40:35.219Z,92.07
2019-02-02T18:43:04.185Z,84.73
2019-02-02T18:45:31.823Z,93.30
2019-02-02T18:47:59.389Z,91.57
2019-02-02T18:50:26.945Z,90.43
2019-02-02T18:53:07.477Z,99.67
2019-02-02T18:55:41.005Z,92.37
2019-02-02T18:58:21.599Z,89.20
2019-02-02T19:00:49.310Z,80.57
2019-02-02T19:03:17.076Z,97.97
2019-02-02T19:05:44.711Z,94.17
2019-02-02T19:08:12.550Z,100.70
2019-02-02T19:10:40.242Z,102.57
2019-02-02T19:13:07.923Z,96.33
2019-02-02T19:15:35.736Z,100.70
2019-02-02T19:18:04.061Z,101.97
2019-02-02T19:20:31.904Z,102.57
2019-02-02T19:22:59.483Z,99.87
2019-02-02T19:25:28.141Z,98.17
2019-02-02T19:27:55.880Z,99.60
2019-02-02T19:30:25.648Z,100.90
2019-02-02T19:32:53.309Z,109.80
2019-02-02T19:35:20.947Z,96.87
2019-02-02T19:37:48.559Z,106.10
2019-02-02T19:40:16.220Z,109.90
2019-02-02T19:42:44.768Z,109.20
2019-02-02T19:45:14.049Z,108.60
2019-02-02T19:47:41.517Z,99.47
2019-02-02T19:50:12.430Z,101.60
2019-02-02T19:52:40.680Z,100.87
2019-02-02T19:55:14.745Z,102.50
2019-02-02T19:57:39.213Z,105.43
2019-02-02T20:00:10.035Z,101.97
2019-02-02T20:02:37.596Z,99.47
2019-02-02T20:05:06.069Z,98.07
2019-02-02T20:07:33.710Z,104.50
2019-02-02T20:10:01.256Z,102.27
2019-02-02T20:12:48.386Z,111.77
2019-02-02T20:15:17.750Z,99.83
2019-02-02T20:17:45.923Z,96.33
2019-02-02T20:20:15.842Z,107.93
2019-02-02T20:22:43.282Z,112.37
2019-02-02T20:25:11.107Z,99.13
2019-02-02T20:27:38.627Z,108.80
2019-02-02T20:30:08.481Z,100.30
2019-02-02T20:32:36.077Z,109.90
2019-02-02T20:35:04.813Z,93.27
2019-02-02T20:37:32.380Z,115.07
2019-02-02T20:39:59.985Z,113.90
2019-02-02T20:42:27.547Z,107.90
2019-02-02T20:44:55.348Z,103.57
2019-02-02T20:47:22.952Z,101.30
2019-02-02T20:49:50.905Z,113.50
2019-02-02T20:52:18.465Z,116.13
2019-02-02T20:54:45.985Z,113.40
2019-02-02T20:57:13.686Z,117.13
2019-02-02T20:59:41.294Z,122.83
2019-02-02T21:02:09.063Z,119.20
2019-02-02T21:04:36.823Z,118.57
2019-02-02T21:07:04.392Z,127.20
2019-02-02T21:09:31.999Z,130.00
2019-02-02T21:11:59.861Z,130.17
2019-02-02T21:14:27.424Z,129.80
2019-02-02T21:16:55.023Z,130.00
2019-02-02T21:19:22.861Z,146.03
2019-02-02T21:21:50.641Z,137.30
2019-02-02T21:24:18.459Z,134.43
2019-02-02T21:26:46.015Z,137.93
2019-02-02T21:29:13.561Z,130.97
2019-02-02T21:31:42.121Z,130.20
2019-02-02T21:34:10.078Z,130.47
2019-02-02T21:36:37.654Z,146.37
2019-02-02T21:39:06.788Z,131.27
2019-02-02T21:41:36.257Z,133.63
2019-02-02T21:44:04.348Z,135.73
2019-02-02T21:46:31.851Z,132.43
2019-02-02T21:48:59.728Z,137.83
2019-02-02T21:51:27.393Z,133.07
2019-02-02T21:53:55.117Z,135.60
2019-02-02T21:56:29.454Z,147.57
2019-02-02T21:58:56.955Z,135.93
2019-02-02T22:01:24.524Z,142.97
2019-02-02T22:03:52.091Z,123.87
2019-02-02T22:06:19.645Z,130.80
2019-02-02T22:08:47.365Z,148.73
2019-02-02T22:11:14.953Z,134.10
2019-02-02T22:13:42.555Z,129.80
2019-02-02T22:16:10.171Z,146.47
2019-02-02T22:18:39.125Z,139.00
2019-02-02T22:21:06.730Z,141.17
2019-02-02T22:23:34.261Z,146.77
2019-02-02T22:26:01.766Z,152.07
2019-02-02T22:28:29.343Z,137.27
2019-02-02T22:30:56.958Z,147.07
2019-02-02T22:33:24.735Z,146.53
2019-02-02T22:35:52.456Z,149.00
2019-02-02T22:38:20.032Z,154.13
2019-02-02T22:40:47.706Z,155.20
2019-02-02T22:43:16.444Z,155.20
2019-02-02T22:45:44.046Z,155.90
2019-02-02T22:48:11.929Z,158.63
2019-02-02T22:50:39.500Z,147.83
2019-02-02T22:53:07.085Z,156.70
2019-02-02T22:55:34.653Z,165.00
2019-02-02T22:58:02.464Z,169.80
2019-02-02T23:01:18.500Z,160.73
2019-02-02T23:04:00.065Z,144.13
2019-02-02T23:06:51.877Z,155.50
2019-02-02T23:09:57.400Z,166.03
2019-02-02T23:13:06.855Z,152.03
2019-02-02T23:16:22.160Z,163.13
2019-02-02T23:18:50.056Z,161.23
2019-02-02T23:21:17.825Z,157.60
2019-02-02T23:23:45.366Z,152.07
2019-02-02T23:26:13.018Z,154.63
2019-02-02T23:28:40.617Z,152.73
2019-02-02T23:31:08.124Z,157.57
2019-02-02T23:33:36.150Z,154.83
2019-02-02T23:36:03.912Z,155.23
2019-02-02T23:38:31.585Z,141.67
2019-02-02T23:40:59.178Z,141.70
2019-02-02T23:43:26.818Z,150.47
2019-02-02T23:45:54.331Z,143.53
2019-02-02T23:48:21.915Z,141.20
2019-02-02T23:50:49.451Z,131.43
2019-02-02T23:53:17.022Z,125.77
2019-02-02T23:55:44.618Z,132.70
2019-02-02T23:58:12.148Z,137.57
